Time;durP1;ratioP1;P1;durP2;ratioP2;P2;SDS_P1;SDS_P2;PMS_P1;PMS_P2;Temp;Humidity;BMP_temperature;BMP_pressure;BME280_temperature;BME280_humidity;BME280_pressure;Samples;Min_cycle;Max_cycle;Signal;HPM_P1;HPM_P2
2022/04/26 03:36:13;;;;;;;12.10;7.85;;;;;;;9.25;61.04;99517.16;7792742;32;37919;-78
2022/04/26 03:40:29;;;;;;;12.98;8.05;;;;;;;9.11;61.61;99524.22;7792602;32;40046;-78
2022/04/26 03:44:45;;;;;;;14.75;8.50;;;;;;;9.01;61.75;99522.28;7791369;32;39844;-79
2022/04/26 03:49:01;;;;;;;13.68;8.50;;;;;;;9.20;61.30;99537.00;7792281;32;37720;-78
2022/04/26 03:53:17;;;;;;;11.80;7.60;;;;;;;9.20;61.21;99537.00;7792445;32;37719;-78
2022/04/26 03:57:33;;;;;;;13.65;7.93;;;;;;;8.95;62.52;99537.78;7792333;32;39234;-79
2022/04/26 04:01:49;;;;;;;15.50;8.57;;;;;;;9.14;61.39;99554.41;7792318;32;39897;-79
2022/04/26 04:06:06;;;;;;;12.60;7.78;;;;;;;9.16;61.37;99551.44;7792198;32;39445;-79
2022/04/26 04:10:22;;;;;;;13.48;7.95;;;;;;;9.29;60.85;99561.78;7792438;32;37097;-79
2022/04/26 04:14:38;;;;;;;13.65;7.50;;;;;;;9.14;61.00;99556.28;7792291;32;39439;-78
2022/04/26 04:23:29;;;;;;;13.18;8.35;;;;;;;9.23;60.90;99560.13;7792058;32;37904;-79
2022/04/26 04:27:45;;;;;;;14.20;8.55;;;;;;;9.12;61.70;99561.19;7792029;32;37111;-79
2022/04/26 04:32:01;;;;;;;14.55;8.90;;;;;;;9.12;61.88;99566.63;7791992;32;39383;-78
2022/04/26 04:36:17;;;;;;;13.43;8.00;;;;;;;9.21;61.92;99575.91;7790011;32;40205;-79
2022/04/26 04:40:34;;;;;;;13.43;7.50;;;;;;;9.14;61.99;99580.75;7791559;32;38596;-78
2022/04/26 04:44:50;;;;;;;12.65;7.55;;;;;;;9.25;62.12;99587.88;7790464;32;37108;-79
2022/04/26 04:49:06;;;;;;;13.38;7.82;;;;;;;9.39;61.42;99599.88;7791287;32;39935;-79
2022/04/26 04:53:22;;;;;;;12.57;8.20;;;;;;;9.31;62.26;99597.72;7791555;32;40579;-78
2022/04/26 04:57:38;;;;;;;15.52;8.75;;;;;;;9.49;61.96;99604.53;7791262;32;37487;-78
2022/04/26 05:01:54;;;;;;;12.20;7.72;;;;;;;9.87;60.89;99604.31;7791298;32;37069;-78
2022/04/26 05:06:14;;;;;;;14.75;8.75;;;;;;;9.90;60.66;99601.03;7791219;32;39340;-79
2022/04/26 05:10:33;;;;;;;18.08;8.32;;;;;;;9.93;60.55;99600.50;7789838;32;40096;-80
2022/04/26 05:14:49;;;;;;;13.13;8.25;;;;;;;9.67;61.55;99610.56;7790921;32;37841;-79
2022/04/26 05:19:05;;;;;;;13.32;8.70;;;;;;;9.81;61.22;99619.00;7790880;32;37744;-79
2022/04/26 05:27:56;;;;;;;14.93;8.70;;;;;;;10.01;60.79;99621.75;7790785;32;41204;-79
2022/04/26 05:32:12;;;;;;;16.35;8.73;;;;;;;10.34;60.58;99625.03;7790507;32;37597;-79
2022/04/26 05:36:29;;;;;;;16.00;8.63;;;;;;;10.40;60.65;99617.66;7790436;32;36953;-79
2022/04/26 05:40:46;;;;;;;14.32;8.80;;;;;;;10.47;60.36;99629.94;7790103;32;39912;-79
2022/04/26 05:45:02;;;;;;;14.20;8.68;;;;;;;10.62;60.85;99636.44;7789920;32;39995;-74
2022/04/26 05:49:18;;;;;;;14.10;8.73;;;;;;;10.49;62.31;99632.38;7791211;32;38067;-75
2022/04/26 05:53:35;;;;;;;14.55;8.80;;;;;;;10.09;64.28;99645.72;7793883;32;37787;-78
2022/04/26 05:57:51;;;;;;;17.12;7.87;;;;;;;10.46;62.06;99644.63;7793710;32;39302;-77
2022/04/26 06:02:07;;;;;;;13.35;7.87;;;;;;;10.44;62.10;99641.38;7775975;32;40000;-78
2022/04/26 06:06:25;;;;;;;12.27;7.57;;;;;;;11.09;60.36;99641.47;7769008;32;38650;-78
2022/04/26 06:10:42;;;;;;;16.12;7.47;;;;;;;10.77;60.05;99644.56;7764554;32;39207;-77
2022/04/26 06:14:59;;;;;;;11.00;6.93;;;;;;;11.15;58.50;99645.00;7765928;32;38934;-78
2022/04/26 06:19:16;;;;;;;10.63;7.00;;;;;;;11.15;58.40;99650.47;7766004;32;40818;-78
2022/04/26 06:23:32;;;;;;;10.27;6.80;;;;;;;11.20;59.16;99644.16;7765160;32;37798;-80
2022/04/26 06:27:48;;;;;;;11.50;6.47;;;;;;;11.30;58.19;99652.31;7766004;32;37181;-79
2022/04/26 06:32:11;;;;;;;10.52;6.85;;;;;;;11.23;58.04;99647.16;7765111;32;40002;-78
2022/04/26 06:36:27;;;;;;;12.15;7.00;;;;;;;11.09;58.25;99646.94;7765618;32;40792;-77
2022/04/26 06:40:46;;;;;;;11.50;7.65;;;;;;;11.63;57.94;99644.50;7765454;32;37822;-79
2022/04/26 06:45:02;;;;;;;11.15;6.45;;;;;;;11.52;57.92;99648.38;7764424;32;37889;-76
2022/04/26 06:49:19;;;;;;;10.50;6.60;;;;;;;11.53;56.68;99650.81;7765697;32;38997;-78
2022/04/26 06:53:35;;;;;;;12.15;7.20;;;;;;;11.84;56.80;99648.72;7765877;32;39999;-77
2022/04/26 06:57:54;;;;;;;11.88;6.87;;;;;;;12.13;55.77;99650.72;7765765;32;37575;-76
2022/04/26 07:02:10;;;;;;;11.52;6.65;;;;;;;12.48;54.72;99647.97;7765463;32;37556;-77
2022/04/26 07:06:27;;;;;;;10.52;5.93;;;;;;;12.77;54.17;99645.22;7765673;32;40062;-77
2022/04/26 07:10:43;;;;;;;11.20;6.65;;;;;;;12.88;53.94;99651.41;7765681;32;40792;-78
2022/04/26 07:14:59;;;;;;;12.63;6.32;;;;;;;12.71;54.56;99649.94;7765642;32;38054;-78
2022/04/26 07:19:18;;;;;;;11.48;6.82;;;;;;;12.72;54.36;99657.03;7765505;32;36947;-78
2022/04/26 07:23:34;;;;;;;10.40;6.47;;;;;;;12.82;55.10;99649.84;7765708;32;39110;-74
2022/04/26 07:27:50;;;;;;;11.12;6.05;;;;;;;13.24;53.59;99657.25;7765443;32;39615;-74
2022/04/26 07:32:07;;;;;;;9.98;6.00;;;;;;;12.81;54.67;99662.69;7765374;32;37533;-77
2022/04/26 07:36:23;;;;;;;9.98;5.60;;;;;;;13.67;51.71;99656.47;7765394;32;36986;-74
2022/04/26 07:40:40;;;;;;;9.23;5.70;;;;;;;13.40;52.24;99663.41;7765237;32;40872;-79
2022/04/26 07:44:56;;;;;;;9.02;5.50;;;;;;;13.89;50.13;99656.69;7765324;32;39608;-80
2022/04/26 07:49:13;;;;;;;9.32;6.03;;;;;;;14.40;48.83;99648.75;7765068;32;38469;-81
2022/04/26 07:53:30;;;;;;;9.93;5.43;;;;;;;14.53;48.08;99660.88;7765031;32;37123;-80
2022/04/26 07:57:46;;;;;;;10.85;5.60;;;;;;;14.35;48.17;99665.28;7763680;32;39981;-82
2022/04/26 08:02:05;;;;;;;9.57;5.45;;;;;;;14.82;49.13;99668.91;7765096;32;39937;-79
2022/04/26 08:06:21;;;;;;;8.98;5.28;;;;;;;14.38;48.80;99661.94;7765076;32;37885;-81
2022/04/26 08:10:37;;;;;;;9.18;4.50;;;;;;;14.77;48.74;99666.25;7764094;32;36912;-79
2022/04/26 08:14:54;;;;;;;7.57;4.55;;;;;;;15.05;46.50;99677.25;7765028;32;40039;-83
2022/04/26 08:19:10;;;;;;;9.10;5.22;;;;;;;15.11;46.64;99676.00;7764790;32;40791;-82
2022/04/26 08:23:27;;;;;;;10.50;4.97;;;;;;;15.39;46.02;99672.16;7764542;32;38666;-81
2022/04/26 08:27:43;;;;;;;10.07;4.85;;;;;;;15.78;45.33;99670.00;7764775;32;36938;-80
2022/04/26 08:31:59;;;;;;;10.40;4.70;;;;;;;14.67;46.87;99682.88;7764788;32;39204;-81
2022/04/26 08:36:15;;;;;;;6.93;4.50;;;;;;;14.92;48.09;99681.59;7764538;32;39918;-79
2022/04/26 08:40:32;;;;;;;8.15;4.65;;;;;;;14.53;47.30;99678.16;7764519;32;38816;-81
2022/04/26 08:44:48;;;;;;;10.23;4.43;;;;;;;15.23;46.75;99678.25;7764546;32;37003;-78
2022/04/26 08:53:38;;;;;;;20.92;4.82;;;;;;;15.45;43.70;99664.59;7764547;32;39590;-79
2022/04/26 08:57:55;;;;;;;5.53;3.60;;;;;;;15.43;45.33;99668.78;7764089;32;37668;-77
2022/04/26 09:02:29;;;;;;;5.85;3.65;;;;;;;15.55;44.35;99674.56;7764302;32;37055;-76
2022/04/26 09:06:45;;;;;;;7.57;4.05;;;;;;;15.27;43.17;99680.09;7763564;32;39260;-74
2022/04/26 09:11:02;;;;;;;4.62;2.90;;;;;;;15.20;44.14;99674.19;7761170;32;39967;-76
2022/04/26 09:15:19;;;;;;;5.57;3.53;;;;;;;16.19;44.31;99659.94;7762314;32;37519;-76
2022/04/26 09:19:48;;;;;;;4.90;3.20;;;;;;;16.32;43.04;99670.88;7762788;32;37679;-75
2022/04/26 09:24:12;;;;;;;6.82;3.47;;;;;;;16.83;40.99;99665.19;7762617;32;39867;-80
2022/04/26 09:28:29;;;;;;;6.07;3.37;;;;;;;16.29;41.69;99670.72;7760705;32;39278;-79
2022/04/26 09:32:48;;;;;;;6.57;3.22;;;;;;;16.62;40.59;99667.69;7763235;32;38731;-78
2022/04/26 09:37:05;;;;;;;7.18;3.83;;;;;;;16.18;41.28;99672.91;7765019;32;37474;-79
2022/04/26 09:41:23;;;;;;;5.82;3.30;;;;;;;16.59;39.58;99679.31;7766059;32;39734;-78
2022/04/26 09:45:55;;;;;;;5.40;2.37;;;;;;;17.15;41.10;99677.84;7766497;32;40728;-80
2022/04/26 09:50:14;;;;;;;3.20;2.22;;;;;;;17.08;36.46;99674.72;7766626;32;38680;-80
2022/04/26 09:54:31;;;;;;;3.35;2.10;;;;;;;16.78;37.70;99677.16;7766764;32;37783;-78
2022/04/26 09:58:48;;;;;;;8.18;2.75;;;;;;;17.29;38.08;99674.16;7766572;32;40040;-78
2022/04/26 10:03:06;;;;;;;3.97;2.50;;;;;;;17.56;36.34;99662.88;7765443;32;40565;-80
2022/04/26 10:07:23;;;;;;;5.05;2.97;;;;;;;18.21;36.84;99660.31;7765359;32;38769;-76
2022/04/26 10:11:39;;;;;;;4.32;2.80;;;;;;;19.00;36.53;99658.19;7765379;32;36984;-77
2022/04/26 10:15:56;;;;;;;5.93;2.90;;;;;;;18.53;36.12;99658.19;7766480;32;39292;-79
2022/04/26 10:20:39;;;;;;;7.15;2.80;;;;;;;18.85;34.03;99645.78;7766236;32;41286;-77
2022/04/26 10:25:12;;;;;;;7.03;2.60;;;;;;;18.70;36.57;99646.28;7765175;32;38638;-75
2022/04/26 10:29:28;;;;;;;3.55;2.45;;;;;;;19.91;34.75;99640.47;7766431;32;37645;-76
2022/04/26 10:33:45;;;;;;;3.90;2.33;;;;;;;19.31;34.20;99641.31;7765599;32;39733;-77
2022/04/26 10:38:15;;;;;;;2.83;2.30;;;;;;;19.36;33.06;99637.53;7765942;32;41544;-76
2022/04/26 10:42:35;;;;;;;2.97;2.28;;;;;;;19.65;33.56;99641.44;7766147;32;38075;-76
2022/04/26 10:46:55;;;;;;;5.60;2.25;;;;;;;20.23;31.23;99625.84;7765876;32;37773;-77
2022/04/26 10:51:33;;;;;;;3.58;2.17;;;;;;;20.94;30.11;99621.16;7765818;32;39964;-76
2022/04/26 10:55:58;;;;;;;4.40;2.20;;;;;;;20.20;30.53;99623.75;7765860;32;40690;-75
2022/04/26 11:00:32;;;;;;;4.32;2.35;;;;;;;20.08;31.55;99623.69;7765683;32;38662;-77
2022/04/26 11:04:59;;;;;;;3.22;2.00;;;;;;;20.30;29.68;99624.47;7766015;32;37792;-75
2022/04/26 11:09:16;;;;;;;6.03;2.05;;;;;;;20.86;31.49;99613.75;7764737;32;39206;-76
2022/04/26 11:13:34;;;;;;;4.07;2.10;;;;;;;20.95;30.61;99622.75;7765750;32;40011;-78
2022/04/26 11:17:53;;;;;;;6.80;2.15;;;;;;;21.47;27.49;99615.72;7765882;32;38909;-77
2022/04/26 11:22:15;;;;;;;2.25;1.67;;;;;;;21.78;27.81;99611.47;7764959;32;37737;-77
2022/04/26 11:31:05;;;;;;;4.40;1.70;;;;;;;21.41;28.77;99619.06;7765507;32;40073;-77
2022/04/26 11:35:21;;;;;;;1.70;1.45;;;;;;;21.49;25.75;99618.13;7765305;32;37991;-76
2022/04/26 11:39:42;;;;;;;2.42;1.55;;;;;;;22.03;26.05;99620.53;7765209;32;37171;-76
2022/04/26 11:44:06;;;;;;;1.80;1.50;;;;;;;20.80;25.64;99615.16;7764125;32;38929;-75
2022/04/26 11:48:25;;;;;;;1.83;1.20;;;;;;;20.95;26.50;99606.13;7762605;32;39611;-76
2022/04/26 11:52:45;;;;;;;2.95;1.20;;;;;;;21.62;25.85;99605.06;7764342;32;37521;-76
2022/04/26 11:57:03;;;;;;;1.60;1.30;;;;;;;22.34;24.80;99599.59;7763479;32;36836;-76
2022/04/26 12:01:20;;;;;;;1.58;1.15;;;;;;;22.44;24.92;99601.84;7764896;32;40778;-77
2022/04/26 12:05:40;;;;;;;1.42;1.27;;;;;;;23.19;23.14;99596.56;7764965;32;41868;-76
2022/04/26 12:09:56;;;;;;;2.15;1.20;;;;;;;23.35;23.67;99596.53;7765013;32;38844;-77
2022/04/26 12:14:16;;;;;;;1.35;1.20;;;;;;;23.53;21.85;99600.53;7763806;32;36931;-76
2022/04/26 12:18:33;;;;;;;2.12;1.40;;;;;;;23.86;21.04;99585.34;7764955;32;40039;-72
2022/04/26 12:22:49;;;;;;;2.05;1.42;;;;;;;23.89;24.42;99583.81;7764853;32;40008;-78
2022/04/26 12:27:15;;;;;;;2.45;1.37;;;;;;;23.66;22.11;99583.69;7717358;32;38014;-78
2022/04/26 12:31:31;;;;;;;1.12;1.02;;;;;;;23.74;22.41;99582.66;7709592;32;36529;-78
2022/04/26 12:35:58;;;;;;;2.55;1.70;;;;;;;24.02;22.70;99585.25;7710095;32;40010;-79
2022/04/26 12:40:17;;;;;;;1.90;1.12;;;;;;;24.05;22.43;99578.94;7710353;32;40631;-77
2022/04/26 12:44:33;;;;;;;2.83;1.92;;;;;;;23.73;22.74;99581.03;7710817;32;37310;-79
2022/04/26 12:53:38;;;;;;;4.03;1.60;;;;;;;23.04;22.42;99570.38;7710457;32;39175;-78
2022/04/26 12:57:56;;;;;;;1.25;1.15;;;;;;;23.68;24.16;99570.22;7708924;32;41622;-79
2022/04/26 13:02:13;;;;;;;2.45;1.50;;;;;;;23.60;22.42;99558.94;7708767;32;37719;-80
2022/04/26 13:06:29;;;;;;;4.57;1.55;;;;;;;22.70;23.34;99558.84;7710025;32;37676;-79
2022/04/26 13:11:06;;;;;;;2.60;1.35;;;;;;;23.22;24.79;99554.13;7709548;32;39555;-77
2022/04/26 13:15:24;;;;;;;2.08;1.70;;;;;;;23.76;22.00;99550.50;7709882;32;40110;-77
2022/04/26 13:19:40;;;;;;;3.30;1.70;;;;;;;23.95;24.27;99546.94;7709018;32;38012;-78
2022/04/26 13:23:57;;;;;;;4.93;1.80;;;;;;;23.07;23.06;99541.88;7708349;32;37694;-80
2022/04/26 13:28:13;;;;;;;2.33;1.30;;;;;;;23.63;23.42;99537.94;7700331;32;39223;-78
2022/04/26 13:32:30;;;;;;;2.40;1.60;;;;;;;23.36;24.75;99539.75;7707953;32;39985;-77
2022/04/26 13:36:46;;;;;;;5.30;1.62;;;;;;;24.26;22.73;99547.12;7709392;32;37624;-78
2022/04/26 13:41:02;;;;;;;2.97;1.77;;;;;;;23.94;24.25;99544.50;7708736;32;36629;-78
2022/04/26 13:45:19;;;;;;;3.83;1.40;;;;;;;23.75;23.70;99539.75;7709326;32;38887;-78
2022/04/26 13:49:36;;;;;;;4.10;1.77;;;;;;;23.54;24.30;99540.94;7708329;32;40696;-77
2022/04/26 13:53:52;;;;;;;2.47;1.90;;;;;;;23.85;24.93;99541.97;7708711;32;39027;-78
2022/04/26 13:58:10;;;;;;;2.30;1.60;;;;;;;23.53;24.72;99539.31;7708749;32;37969;-78
2022/04/26 14:02:26;;;;;;;2.37;1.90;;;;;;;23.38;24.04;99531.84;7708177;32;40064;-78
2022/04/26 14:06:43;;;;;;;14.40;2.22;;;;;;;23.59;23.48;99534.25;7708371;32;39613;-77
2022/04/26 14:10:59;;;;;;;2.58;1.87;;;;;;;22.79;26.05;99534.44;7709880;32;37983;-77
2022/04/26 14:24:24;;;;;;;3.83;2.30;;;;;;;22.39;26.64;99538.25;7712128;32;40645;-78
2022/04/26 14:28:40;;;;;;;7.18;2.55;;;;;;;22.95;26.35;99530.84;7708010;32;37588;-78
2022/04/26 14:32:57;;;;;;;4.47;2.22;;;;;;;22.55;27.19;99529.09;7711521;32;36657;-79
2022/04/26 14:37:13;;;;;;;3.03;1.80;;;;;;;21.66;29.32;99534.66;7712078;32;39260;-78
2022/04/26 14:41:29;;;;;;;3.55;2.10;;;;;;;21.53;29.00;99533.09;7711377;32;39992;-76
2022/04/26 14:45:45;;;;;;;3.12;1.95;;;;;;;21.22;28.11;99536.50;7711610;32;38641;-78
2022/04/26 14:50:04;;;;;;;2.17;1.75;;;;;;;21.96;27.81;99525.19;7711497;32;36644;-78
2022/04/26 14:54:21;;;;;;;3.67;2.08;;;;;;;21.83;28.24;99538.28;7711778;32;40078;-77
2022/04/26 14:58:38;;;;;;;2.10;1.83;;;;;;;21.33;28.78;99543.16;7711997;32;41134;-76
2022/04/26 15:02:54;;;;;;;3.45;2.03;;;;;;;21.49;28.99;99546.03;7711196;32;38039;-81
2022/04/26 15:07:10;;;;;;;3.50;1.73;;;;;;;21.10;29.22;99540.09;7711972;32;37846;-81
2022/04/26 15:11:26;;;;;;;4.18;2.00;;;;;;;21.31;29.77;99537.16;7710191;32;40514;-82
2022/04/26 15:20:21;;;;;;;5.47;2.22;;;;;;;20.46;30.49;99534.06;7711499;32;37954;-81
2022/04/26 15:24:37;;;;;;;2.37;1.90;;;;;;;20.51;30.21;99538.59;7711226;32;36888;-82
2022/04/26 15:28:54;;;;;;;2.47;2.17;;;;;;;20.66;30.47;99532.38;7704104;32;39341;-79
2022/04/26 15:33:11;;;;;;;2.83;2.10;;;;;;;20.58;30.02;99525.78;7709607;32;39779;-78
2022/04/26 15:37:28;;;;;;;3.20;2.12;;;;;;;20.64;30.10;99531.91;7708368;32;38165;-79
2022/04/26 15:41:44;;;;;;;4.12;2.00;;;;;;;20.90;29.92;99522.44;7683609;32;37927;-78
2022/04/26 15:46:06;;;;;;;3.85;1.67;;;;;;;20.74;31.36;99522.34;7684473;32;39009;-79
2022/04/26 15:50:23;;;;;;;4.27;2.13;;;;;;;20.79;30.18;99524.88;7684734;32;39963;-79
2022/04/26 15:54:41;;;;;;;3.40;2.28;;;;;;;20.94;29.83;99526.94;7683912;32;38754;-82
2022/04/26 15:58:58;;;;;;;2.83;2.03;;;;;;;20.69;29.43;99530.88;7684683;32;37756;-82
2022/04/26 16:03:19;;;;;;;4.78;1.98;;;;;;;20.13;31.41;99534.94;7684322;32;39659;-81
2022/04/26 16:07:36;;;;;;;6.47;2.33;;;;;;;20.33;30.79;99535.19;7684162;32;41058;-82
2022/04/26 16:21:04;;;;;;;3.17;2.08;;;;;;;20.34;31.80;99520.22;7702752;32;40015;-82
2022/04/26 16:25:20;;;;;;;7.20;2.50;;;;;;;19.97;32.74;99522.88;7710166;32;40803;-82
2022/04/26 16:29:36;;;;;;;4.07;2.33;;;;;;;19.75;33.25;99522.13;7701448;32;38407;-82
2022/04/26 16:33:52;;;;;;;4.50;2.50;;;;;;;19.85;32.87;99527.25;7709688;32;36708;-82
2022/04/26 16:38:09;;;;;;;5.32;2.80;;;;;;;19.68;33.09;99522.66;7710387;32;38880;-82
2022/04/26 16:42:25;;;;;;;5.18;2.80;;;;;;;19.54;34.71;99521.31;7710857;32;40859;-82
2022/04/26 16:46:41;;;;;;;6.62;2.65;;;;;;;19.67;34.50;99526.56;7709844;32;38231;-82
2022/04/26 16:50:58;;;;;;;14.70;2.65;;;;;;;19.78;34.38;99527.00;7701212;32;289840;-82
2022/04/26 16:55:14;;;;;;;7.12;2.70;;;;;;;19.43;35.98;99535.53;7710196;32;39441;-82
2022/04/26 16:59:30;;;;;;;7.10;3.30;;;;;;;19.41;35.61;99529.53;7710171;32;39604;-82
2022/04/26 17:03:47;;;;;;;26.77;14.13;;;;;;;19.67;34.98;99531.28;7710235;32;37910;-82
2022/04/26 17:08:04;;;;;;;28.12;16.25;;;;;;;19.50;37.33;99527.50;7709499;32;37898;-82
2022/04/26 17:12:21;;;;;;;29.45;16.42;;;;;;;19.14;36.59;99536.41;7710011;32;39337;-80
2022/04/26 17:16:39;;;;;;;29.87;15.45;;;;;;;19.11;36.88;99537.09;7709158;32;40022;-80
2022/04/26 17:20:55;;;;;;;31.10;16.42;;;;;;;19.09;37.22;99547.66;7709398;32;38763;-80
2022/04/26 17:25:15;;;;;;;25.73;15.15;;;;;;;18.99;36.95;99546.09;7709609;32;37182;-79
2022/04/26 17:29:52;;;;;;;32.88;20.12;;;;;;;18.81;37.35;99547.31;7705313;32;40294;-80
2022/04/26 17:34:23;;;;;;;25.30;14.10;;;;;;;18.69;37.86;99551.56;7709398;32;40911;-79
2022/04/26 17:38:39;;;;;;;24.20;12.82;;;;;;;18.87;37.75;99551.53;7709448;32;38703;-79
2022/04/26 17:42:55;;;;;;;15.25;8.57;;;;;;;18.75;38.67;99555.78;7708139;32;37094;-79
2022/04/26 17:47:12;;;;;;;12.50;6.43;;;;;;;18.73;39.08;99566.34;7712967;32;40041;-79
2022/04/26 17:51:42;;;;;;;12.50;7.10;;;;;;;18.66;39.01;99566.06;7712800;32;40469;-78
2022/04/26 18:00:37;;;;;;;14.40;8.07;;;;;;;18.56;39.85;99571.94;7712852;32;37099;-79
2022/04/26 18:04:53;;;;;;;14.07;6.50;;;;;;;18.20;40.34;99574.00;7712784;32;39281;-79
2022/04/26 18:09:10;;;;;;;6.75;3.87;;;;;;;18.35;40.08;99572.66;7712669;32;39923;-79
2022/04/26 18:13:27;;;;;;;6.15;3.78;;;;;;;18.36;38.10;99577.03;7712636;32;37947;-79
2022/04/26 18:17:43;;;;;;;11.05;4.18;;;;;;;18.38;39.26;99580.28;7712640;32;37665;-78
2022/04/26 18:21:59;;;;;;;7.15;3.92;;;;;;;18.21;40.28;99588.59;7712300;32;39146;-79
2022/04/26 18:26:17;;;;;;;6.45;4.00;;;;;;;18.10;38.57;99587.31;7712268;32;39917;-78
2022/04/26 18:30:34;;;;;;;6.87;3.78;;;;;;;18.14;38.37;99599.31;7712339;32;36889;-77
2022/04/26 18:34:50;;;;;;;6.20;3.72;;;;;;;18.08;39.96;99598.69;7712177;32;37722;-81
2022/04/26 18:39:08;;;;;;;8.93;3.70;;;;;;;18.20;39.08;99604.34;7712185;32;39727;-81
2022/04/26 18:43:25;;;;;;;7.95;4.18;;;;;;;18.15;40.89;99600.94;7710907;32;39922;-81
2022/04/26 18:47:41;;;;;;;7.85;4.10;;;;;;;17.87;42.25;99606.81;7710794;32;38659;-81
2022/04/26 18:51:58;;;;;;;9.95;5.00;;;;;;;17.78;41.48;99609.56;7711861;32;37608;-79
2022/04/26 18:56:15;;;;;;;7.87;3.92;;;;;;;17.80;39.94;99606.47;7711488;32;40912;-78
2022/04/26 19:00:31;;;;;;;8.82;4.45;;;;;;;17.76;40.89;99606.28;7705877;32;40850;-78
2022/04/26 19:04:47;;;;;;;7.43;4.03;;;;;;;17.89;40.18;99600.97;7711161;32;38741;-80
2022/04/26 19:09:05;;;;;;;8.75;4.20;;;;;;;17.99;39.58;99614.44;7711363;32;36984;-79
2022/04/26 19:13:22;;;;;;;7.12;3.92;;;;;;;17.88;39.34;99615.91;7710785;32;40771;-79
2022/04/26 19:17:38;;;;;;;10.73;3.53;;;;;;;17.71;39.98;99617.47;7711084;32;40750;-79
2022/04/26 19:21:54;;;;;;;6.40;3.33;;;;;;;17.63;40.92;99618.31;7710389;32;38624;-79
2022/04/26 19:26:13;;;;;;;13.82;4.07;;;;;;;17.60;41.77;99617.00;7711484;32;36999;-78
2022/04/26 19:30:29;;;;;;;8.10;3.40;;;;;;;17.47;42.79;99617.94;7710799;32;39295;-77
2022/04/26 19:34:45;;;;;;;8.95;4.78;;;;;;;17.34;43.54;99611.44;7710918;32;39486;-78
2022/04/26 19:39:01;;;;;;;9.63;5.03;;;;;;;17.51;41.99;99610.66;7710831;32;37937;-78
2022/04/26 19:43:18;;;;;;;9.40;4.90;;;;;;;17.35;42.24;99618.59;7710241;32;37057;-78
2022/04/26 19:47:35;;;;;;;11.60;6.70;;;;;;;17.27;42.79;99625.69;7711528;32;39777;-79
2022/04/26 19:51:51;;;;;;;13.55;6.40;;;;;;;17.29;42.54;99624.56;7709916;32;39931;-79
2022/04/26 19:56:13;;;;;;;12.43;6.22;;;;;;;16.95;44.71;99626.09;7711081;32;38578;-79
2022/04/26 20:00:29;;;;;;;9.73;6.07;;;;;;;16.89;45.35;99636.44;7710395;32;37113;-79
2022/04/26 20:04:45;;;;;;;9.07;5.50;;;;;;;16.98;44.65;99639.22;7710585;32;39576;-78
2022/04/26 20:09:02;;;;;;;8.77;4.85;;;;;;;16.83;44.42;99632.16;7709399;32;39880;-78
2022/04/26 20:13:20;;;;;;;8.93;4.57;;;;;;;16.73;44.12;99635.19;7709983;32;36799;-79
2022/04/26 20:17:37;;;;;;;6.95;4.12;;;;;;;16.83;44.67;99633.00;7710934;32;37418;-82
2022/04/26 20:21:53;;;;;;;6.95;4.12;;;;;;;16.77;45.09;99642.50;7710290;32;39447;-81
2022/04/26 20:30:44;;;;;;;7.10;3.97;;;;;;;16.70;45.06;99640.19;7710115;32;37888;-80
2022/04/26 20:35:00;;;;;;;6.10;3.80;;;;;;;16.69;44.94;99641.34;7709929;32;37671;-81
2022/04/26 20:39:17;;;;;;;7.93;3.62;;;;;;;16.72;44.72;99645.38;7710546;32;39001;-81
2022/04/26 20:43:33;;;;;;;9.63;4.03;;;;;;;16.64;45.07;99643.41;7709859;32;39778;-80
2022/04/26 20:47:49;;;;;;;6.80;3.67;;;;;;;16.65;44.90;99656.03;7710611;32;37950;-82
2022/04/26 20:52:06;;;;;;;9.02;3.83;;;;;;;16.60;44.33;99639.66;7709942;32;37099;-81
2022/04/26 20:56:22;;;;;;;7.80;3.78;;;;;;;16.52;44.90;99642.06;7710190;32;39294;-81
2022/04/26 21:00:38;;;;;;;4.68;3.25;;;;;;;16.27;45.95;99648.22;7709611;32;40903;-81
2022/04/26 21:04:54;;;;;;;5.62;3.53;;;;;;;16.40;44.78;99652.00;7709526;32;38622;-80
2022/04/26 21:09:10;;;;;;;6.30;3.80;;;;;;;16.20;44.30;99645.91;7709782;32;36638;-79
2022/04/26 21:13:27;;;;;;;6.47;3.53;;;;;;;15.95;44.87;99655.56;7709502;32;39280;-78
2022/04/26 21:17:44;;;;;;;6.70;3.90;;;;;;;15.70;45.68;99660.50;7709625;32;40142;-80
2022/04/26 21:22:00;;;;;;;10.20;3.58;;;;;;;16.03;45.38;99656.78;7712574;32;37607;-81
2022/04/26 21:26:17;;;;;;;9.30;3.70;;;;;;;15.99;45.98;99661.25;7712478;32;37120;-82
2022/04/26 21:30:33;;;;;;;5.07;3.40;;;;;;;15.88;46.88;99664.22;7712509;32;40036;-82
2022/04/26 21:34:49;;;;;;;8.63;3.15;;;;;;;15.83;46.70;99663.53;7712348;32;39989;-81
2022/04/26 21:39:05;;;;;;;4.85;3.45;;;;;;;15.81;46.82;99661.09;7712879;32;37948;-80
2022/04/26 21:43:21;;;;;;;5.75;3.35;;;;;;;15.67;47.12;99652.88;7712349;32;37652;-81
2022/04/26 21:47:38;;;;;;;8.38;3.55;;;;;;;15.88;45.72;99646.94;7712693;32;39243;-80
2022/04/26 21:51:54;;;;;;;6.28;3.50;;;;;;;15.86;44.11;99658.22;7712129;32;40061;-80
2022/04/26 21:56:10;;;;;;;4.90;3.08;;;;;;;15.70;45.48;99663.25;7711818;32;38804;-81
2022/04/26 22:00:26;;;;;;;5.32;3.40;;;;;;;15.65;45.91;99662.56;7712639;32;37606;-80
2022/04/26 22:04:42;;;;;;;5.28;3.28;;;;;;;15.69;45.67;99667.09;7712112;32;39218;-80
2022/04/26 22:09:00;;;;;;;5.65;3.55;;;;;;;15.57;46.49;99669.56;7712310;32;40862;-81
2022/04/26 22:13:18;;;;;;;6.55;3.50;;;;;;;15.49;47.08;99671.13;7712113;32;36997;-81
2022/04/26 22:17:34;;;;;;;6.30;3.72;;;;;;;15.66;46.87;99669.66;7711829;32;36916;-81
2022/04/26 22:21:50;;;;;;;7.20;3.80;;;;;;;15.21;49.00;99675.81;7711774;32;39990;-80
2022/04/26 22:26:06;;;;;;;6.43;3.55;;;;;;;15.28;49.18;99679.00;7711661;32;39696;-80
2022/04/26 22:30:22;;;;;;;5.47;3.67;;;;;;;15.52;48.42;99680.66;7711325;32;37756;-80
2022/04/26 22:34:39;;;;;;;7.97;3.83;;;;;;;15.33;48.32;99689.88;7712118;32;36721;-82
2022/04/26 22:38:55;;;;;;;5.40;3.50;;;;;;;15.30;48.18;99695.16;7710742;32;39368;-80
2022/04/26 22:43:11;;;;;;;5.70;3.03;;;;;;;15.32;48.31;99685.47;7711643;32;40807;-80
2022/04/26 22:47:28;;;;;;;5.68;3.35;;;;;;;15.35;48.49;99692.28;7711704;32;38644;-80
2022/04/26 22:51:44;;;;;;;5.72;3.47;;;;;;;15.25;49.65;99687.81;7711201;32;37754;-81
2022/04/26 22:56:00;;;;;;;4.90;3.30;;;;;;;15.11;50.32;99692.47;7712314;32;39252;-81
2022/04/26 23:00:16;;;;;;;5.18;3.17;;;;;;;14.97;49.83;99693.31;7710750;32;41270;-81
2022/04/26 23:04:32;;;;;;;4.35;3.03;;;;;;;15.22;49.18;99688.44;7712033;32;37630;-81
2022/04/26 23:08:49;;;;;;;7.00;3.37;;;;;;;15.09;48.82;99683.75;7712221;32;37678;-80
2022/04/26 23:13:05;;;;;;;7.72;3.60;;;;;;;15.12;49.60;99681.19;7712177;32;39306;-80
2022/04/26 23:17:21;;;;;;;6.32;3.30;;;;;;;15.11;50.07;99681.50;7712112;32;40018;-80
2022/04/26 23:21:38;;;;;;;4.30;2.97;;;;;;;14.99;49.27;99693.81;7711901;32;37945;-81
2022/04/26 23:25:54;;;;;;;6.15;3.55;;;;;;;14.81;50.66;99681.81;7711963;32;36964;-80
2022/04/26 23:30:11;;;;;;;7.65;3.60;;;;;;;14.83;50.95;99692.47;7711970;32;39390;-81
2022/04/26 23:39:02;;;;;;;6.00;3.25;;;;;;;14.96;50.86;99688.94;7711859;32;38966;-81
2022/04/26 23:43:18;;;;;;;5.78;3.12;;;;;;;15.07;48.84;99685.97;7711479;32;36666;-80
2022/04/26 23:47:34;;;;;;;5.05;3.30;;;;;;;14.79;50.44;99681.28;7711844;32;38996;-80
2022/04/26 23:56:25;;;;;;;7.80;3.75;;;;;;;14.84;51.41;99692.16;7711647;32;37894;-80
